Time;durP1;ratioP1;P1;durP2;ratioP2;P2;SDS_P1;SDS_P2;PMS_P1;PMS_P2;Temp;Humidity;BMP_temperature;BMP_pressure;BME280_temperature;BME280_humidity;BME280_pressure;Samples;Min_cycle;Max_cycle;Signal;HPM_P1;HPM_P2
2024/03/15 00:02:16;;;;;;;2.25;2.05;;;;;;;22.27;40.24;100647.19;5044256;28;20043;-71
2024/03/15 00:04:42;;;;;;;2.88;2.28;;;;;;;22.23;40.59;100649.38;5046729;28;20048;-73
2024/03/15 00:07:08;;;;;;;2.15;1.92;;;;;;;22.21;40.47;100643.47;5043936;28;20044;-72
2024/03/15 00:09:33;;;;;;;1.83;1.70;;;;;;;22.16;40.54;100637.94;5038945;28;20167;-71
2024/03/15 00:12:02;;;;;;;2.33;2.13;;;;;;;22.23;40.39;100646.72;5042750;28;20033;-71
2024/03/15 00:14:28;;;;;;;2.40;2.13;;;;;;;22.19;40.26;100647.34;5042419;28;20041;-70
2024/03/15 00:16:54;;;;;;;2.15;1.85;;;;;;;22.16;40.20;100635.28;5041597;28;20036;-71
2024/03/15 00:19:20;;;;;;;2.20;2.00;;;;;;;22.12;40.38;100628.75;5042090;28;20029;-71
2024/03/15 00:21:46;;;;;;;2.05;1.95;;;;;;;22.18;40.33;100635.09;5045615;28;20056;-72
2024/03/15 00:24:13;;;;;;;2.33;2.13;;;;;;;22.15;40.29;100632.84;5042710;28;20040;-72
2024/03/15 00:26:40;;;;;;;2.35;2.15;;;;;;;22.12;40.63;100631.41;5040848;28;20049;-72
2024/03/15 00:29:06;;;;;;;2.17;1.98;;;;;;;22.14;40.19;100633.88;5049752;28;20459;-72
2024/03/15 00:31:31;;;;;;;2.13;1.92;;;;;;;22.15;40.54;100641.63;5039345;28;20028;-72
2024/03/15 00:33:57;;;;;;;2.30;2.10;;;;;;;22.10;40.30;100633.44;5043707;28;20052;-71
2024/03/15 00:36:23;;;;;;;2.95;2.22;;;;;;;22.10;40.57;100636.09;5044110;28;20064;-72
2024/03/15 00:38:52;;;;;;;2.45;2.10;;;;;;;22.10;40.55;100624.69;5042769;28;20513;-72
2024/03/15 00:41:18;;;;;;;2.13;1.90;;;;;;;22.12;40.49;100622.66;5045031;28;20025;-71
2024/03/15 00:43:45;;;;;;;4.05;2.00;;;;;;;21.93;40.30;100593.19;5044716;28;20223;-72
2024/03/15 00:46:11;;;;;;;2.75;2.30;;;;;;;22.06;40.34;100624.22;5041899;28;20041;-72
2024/03/15 00:48:37;;;;;;;2.40;2.20;;;;;;;22.08;40.58;100614.25;5042074;28;20044;-72
2024/03/15 00:51:04;;;;;;;2.10;2.00;;;;;;;22.10;40.58;100606.94;5043886;28;20061;-72
2024/03/15 00:53:30;;;;;;;2.20;2.00;;;;;;;22.06;40.31;100596.91;5045693;28;20055;-71
2024/03/15 00:55:56;;;;;;;2.35;2.15;;;;;;;22.10;40.31;100593.69;5044372;28;20033;-72
2024/03/15 00:58:21;;;;;;;2.45;2.10;;;;;;;22.08;40.32;100605.47;5046534;28;20445;-73
2024/03/15 01:00:48;;;;;;;2.47;2.28;;;;;;;21.99;40.28;100588.91;5046610;28;20102;-73
2024/03/15 01:03:15;;;;;;;2.00;1.90;;;;;;;22.04;40.30;100597.06;5047781;28;20143;-71
2024/03/15 01:05:40;;;;;;;2.25;2.08;;;;;;;22.06;40.39;100600.38;5036998;28;20037;-71
2024/03/15 01:08:07;;;;;;;2.83;2.10;;;;;;;22.02;40.39;100589.31;5047774;28;20049;-72
2024/03/15 01:10:33;;;;;;;2.58;2.10;;;;;;;22.00;40.11;100587.88;5041931;28;20037;-72
2024/03/15 01:12:59;;;;;;;2.08;1.88;;;;;;;22.00;40.36;100582.59;5044190;28;20059;-72
2024/03/15 01:15:24;;;;;;;2.10;2.00;;;;;;;22.01;40.43;100579.72;5045452;28;20444;-72
2024/03/15 01:17:53;;;;;;;2.05;1.90;;;;;;;22.01;40.50;100573.63;5045335;28;20056;-72
2024/03/15 01:20:19;;;;;;;2.75;2.33;;;;;;;22.00;40.33;100566.69;5040351;28;20466;-72
2024/03/15 01:22:47;;;;;;;2.13;1.92;;;;;;;21.94;40.60;100570.13;5042076;28;20044;-72
2024/03/15 01:25:13;;;;;;;1.98;1.83;;;;;;;21.96;40.55;100560.97;5043141;28;20101;-72
2024/03/15 01:27:39;;;;;;;2.13;2.00;;;;;;;21.98;40.57;100576.66;5045581;28;20576;-72
2024/03/15 01:30:05;;;;;;;2.47;2.20;;;;;;;21.94;40.55;100570.97;5044507;28;20045;-72
2024/03/15 01:32:31;;;;;;;2.22;2.03;;;;;;;21.96;40.52;100574.22;5039771;28;20433;-71
2024/03/15 01:34:56;;;;;;;2.00;1.80;;;;;;;21.98;40.22;100579.31;5040317;28;20040;-72
2024/03/15 01:37:22;;;;;;;3.22;2.08;;;;;;;21.94;40.38;100581.56;5041517;28;20048;-73
2024/03/15 01:39:50;;;;;;;2.25;2.05;;;;;;;21.97;40.20;100575.84;5043551;28;20036;-70
2024/03/15 01:42:16;;;;;;;2.33;2.10;;;;;;;21.95;40.23;100574.44;5041578;28;20049;-72
2024/03/15 01:44:53;;;;;;;2.22;2.03;;;;;;;21.89;40.27;100554.81;5041180;28;20114;-72
2024/03/15 01:47:19;;;;;;;2.78;2.33;;;;;;;21.92;40.34;100569.53;5040424;28;20582;-72
2024/03/15 01:49:45;;;;;;;2.00;1.90;;;;;;;21.91;40.19;100557.28;5044544;28;20041;-72
2024/03/15 01:52:12;;;;;;;2.17;1.98;;;;;;;21.93;40.39;100560.56;5037047;28;20091;-72
2024/03/15 01:54:38;;;;;;;2.15;2.03;;;;;;;21.90;40.59;100561.78;5045756;28;20049;-72
2024/03/15 01:57:05;;;;;;;2.90;2.42;;;;;;;21.84;40.53;100554.59;5044091;28;20183;-72
2024/03/15 01:59:31;;;;;;;2.40;2.17;;;;;;;21.88;40.30;100558.47;5042832;28;20051;-72
2024/03/15 02:02:03;;;;;;;2.50;2.30;;;;;;;21.87;40.29;100559.50;5036027;28;20041;-72
2024/03/15 02:04:28;;;;;;;2.33;2.13;;;;;;;21.82;40.38;100553.16;5043691;28;20183;-72
2024/03/15 02:06:55;;;;;;;2.13;2.00;;;;;;;21.87;40.30;100559.50;5045057;28;20033;-71
2024/03/15 02:09:21;;;;;;;2.72;2.10;;;;;;;21.88;40.63;100547.88;5044446;28;20045;-71
2024/03/15 02:11:47;;;;;;;2.28;2.05;;;;;;;21.88;40.50;100545.22;5057362;28;20541;-72
2024/03/15 02:14:16;;;;;;;2.30;2.10;;;;;;;21.84;40.28;100536.03;5048449;28;20422;-72
2024/03/15 02:16:41;;;;;;;2.40;2.00;;;;;;;21.80;40.27;100534.81;5056938;28;20033;-72
2024/03/15 02:19:07;;;;;;;2.20;2.00;;;;;;;21.82;40.29;100543.38;5048318;28;20460;-71
2024/03/15 02:21:32;;;;;;;2.47;2.20;;;;;;;21.85;40.29;100535.03;5047136;28;20056;-73
2024/03/15 02:23:58;;;;;;;2.20;2.00;;;;;;;21.83;40.45;100539.72;5047583;28;21445;-72
2024/03/15 02:26:23;;;;;;;3.90;2.00;;;;;;;21.81;40.41;100539.09;5048716;28;20051;-72
2024/03/15 02:28:49;;;;;;;2.33;2.10;;;;;;;21.82;40.21;100537.25;5041977;28;20369;-72
2024/03/15 02:31:14;;;;;;;2.50;2.30;;;;;;;21.82;40.40;100535.44;5049364;28;20602;-71
2024/03/15 02:33:40;;;;;;;2.20;2.00;;;;;;;21.84;40.46;100537.88;5062049;28;20400;-72
2024/03/15 02:36:10;;;;;;;2.50;2.30;;;;;;;21.81;40.66;100540.94;5045003;28;20041;-72
2024/03/15 02:38:36;;;;;;;;;;;;;;;21.78;40.32;100541.34;5042792;28;20049;-70
2024/03/15 02:41:04;;;;;;;2.50;2.13;;;;;;;21.78;40.31;100536.84;5044401;28;19931;-71
2024/03/15 02:43:30;;;;;;;2.30;2.10;;;;;;;21.68;40.29;100537.22;5051427;28;20052;-74
2024/03/15 02:45:56;;;;;;;2.50;2.30;;;;;;;21.74;40.26;100532.97;5045719;28;20449;-73
2024/03/15 02:48:21;;;;;;;2.30;2.00;;;;;;;21.81;40.55;100543.59;5046886;28;20043;-74
2024/03/15 02:50:47;;;;;;;2.13;1.88;;;;;;;21.81;40.62;100543.59;5041379;28;20599;-73
2024/03/15 02:53:13;;;;;;;2.35;2.15;;;;;;;21.78;40.40;100539.50;5046927;28;20787;-73
2024/03/15 02:55:39;;;;;;;2.20;2.00;;;;;;;21.74;40.57;100546.22;5046547;28;20809;-73
2024/03/15 02:58:07;;;;;;;3.35;2.05;;;;;;;21.71;40.32;100546.59;5045372;28;20148;-72
2024/03/15 03:00:34;;;;;;;2.20;2.00;;;;;;;21.62;40.41;100535.38;5043157;28;20391;-72
2024/03/15 03:03:00;;;;;;;2.30;2.10;;;;;;;21.70;40.75;100551.09;5044310;28;20036;-72
2024/03/15 03:05:26;;;;;;;1.90;1.80;;;;;;;21.76;40.57;100556.63;5047370;28;20049;-72
2024/03/15 03:07:51;;;;;;;2.33;2.10;;;;;;;21.68;40.53;100555.75;5045837;28;20042;-73
2024/03/15 03:10:17;;;;;;;2.65;2.20;;;;;;;21.72;40.44;100558.84;5044320;28;20590;-72
2024/03/15 03:12:42;;;;;;;2.75;1.92;;;;;;;21.73;40.35;100551.72;5039979;28;20079;-73
2024/03/15 03:15:10;;;;;;;2.33;2.13;;;;;;;21.72;40.62;100553.53;5041805;28;21540;-72
2024/03/15 03:17:35;;;;;;;1.92;1.80;;;;;;;21.71;40.59;100555.38;5041187;28;20052;-74
2024/03/15 03:20:01;;;;;;;2.47;1.92;;;;;;;21.73;40.34;100562.31;5046104;28;20358;-72
2024/03/15 03:22:26;;;;;;;2.25;2.05;;;;;;;21.70;40.38;100560.88;5042671;28;20457;-72
2024/03/15 03:24:52;;;;;;;2.38;2.17;;;;;;;21.56;40.68;100530.88;5046794;28;20048;-71
2024/03/15 03:27:17;;;;;;;2.35;2.15;;;;;;;21.63;40.70;100552.91;5041397;28;20052;-72
2024/03/15 03:29:43;;;;;;;2.58;2.10;;;;;;;21.67;40.62;100553.31;5047042;28;20578;-73
2024/03/15 03:32:08;;;;;;;2.20;1.95;;;;;;;21.68;40.35;100552.31;5045167;28;20365;-71
2024/03/15 03:34:34;;;;;;;2.25;2.05;;;;;;;21.66;40.61;100546.38;5043071;28;20118;-73
2024/03/15 03:36:59;;;;;;;2.35;2.15;;;;;;;21.68;40.70;100552.31;5061012;28;20033;-73
2024/03/15 03:39:25;;;;;;;2.13;1.92;;;;;;;21.64;40.64;100553.72;5042253;28;20057;-73
2024/03/15 03:41:51;;;;;;;2.03;1.92;;;;;;;21.67;40.69;100551.47;5042633;28;20634;-72
2024/03/15 03:44:17;;;;;;;2.30;2.08;;;;;;;21.65;40.70;100547.41;5044767;28;20143;-72
2024/03/15 03:46:43;;;;;;;2.17;2.00;;;;;;;21.58;40.33;100536.78;5049446;28;20244;-72
2024/03/15 03:49:08;;;;;;;2.25;1.92;;;;;;;21.65;40.56;100547.41;5040547;28;20073;-72
2024/03/15 03:51:34;;;;;;;2.05;1.80;;;;;;;21.62;40.59;100537.19;5044650;28;20111;-73
2024/03/15 03:54:00;;;;;;;2.30;2.10;;;;;;;21.53;40.34;100533.91;5040941;28;20033;-72
2024/03/15 03:56:29;;;;;;;2.20;2.00;;;;;;;21.58;40.68;100526.19;5045241;28;20040;-73
2024/03/15 03:58:55;;;;;;;2.33;2.13;;;;;;;21.60;40.48;100526.81;5044924;28;20128;-73
2024/03/15 04:01:20;;;;;;;2.72;2.38;;;;;;;21.61;40.30;100533.75;5043026;28;20042;-73
2024/03/15 04:03:50;;;;;;;1.70;1.60;;;;;;;21.60;40.35;100532.09;5042619;28;20052;-73
2024/03/15 04:06:15;;;;;;;2.28;1.90;;;;;;;21.62;40.50;100530.06;5048118;28;20385;-73
2024/03/15 04:08:41;;;;;;;2.05;1.80;;;;;;;21.58;40.45;100536.78;5041834;28;20045;-72
2024/03/15 04:11:09;;;;;;;2.30;2.15;;;;;;;21.57;40.43;100531.69;5042865;28;20029;-72
2024/03/15 04:13:34;;;;;;;2.38;2.17;;;;;;;21.59;40.65;100534.97;5040387;28;20041;-72
2024/03/15 04:16:01;;;;;;;2.63;2.20;;;;;;;21.61;40.44;100544.34;5044993;28;20041;-72
2024/03/15 04:18:28;;;;;;;2.30;2.10;;;;;;;21.59;40.45;100550.84;5045612;28;20409;-72
2024/03/15 04:20:53;;;;;;;1.70;1.60;;;;;;;21.58;40.36;100549.22;5046346;28;20056;-72
2024/03/15 04:23:20;;;;;;;2.13;1.92;;;;;;;21.59;40.54;100556.97;5047641;28;20048;-73
2024/03/15 04:25:48;;;;;;;2.38;2.13;;;;;;;21.60;40.76;100555.13;5047641;28;20037;-73
2024/03/15 04:28:14;;;;;;;2.25;2.05;;;;;;;21.60;40.63;100558.59;5044428;28;20045;-73
2024/03/15 04:30:40;;;;;;;3.00;2.50;;;;;;;21.57;40.56;100551.06;5046000;28;20083;-73
2024/03/15 04:33:06;;;;;;;1.90;1.80;;;;;;;21.54;40.43;100537.34;5044098;28;20061;-72
2024/03/15 04:35:31;;;;;;;2.15;2.00;;;;;;;21.56;40.74;100554.72;5046106;28;20082;-73
2024/03/15 04:37:57;;;;;;;1.92;1.80;;;;;;;21.56;40.64;100538.00;5042165;28;20059;-72
2024/03/15 04:40:25;;;;;;;2.00;1.80;;;;;;;21.55;40.46;100545.13;5041099;28;20085;-73
2024/03/15 04:42:51;;;;;;;2.42;2.10;;;;;;;21.54;40.52;100540.81;5047082;28;20071;-73
2024/03/15 04:45:17;;;;;;;2.47;2.00;;;;;;;21.53;40.57;100533.06;5042220;28;20036;-73
2024/03/15 04:47:44;;;;;;;2.15;1.95;;;;;;;21.54;40.60;100542.66;5045139;28;20590;-72
2024/03/15 04:50:09;;;;;;;2.28;2.08;;;;;;;21.56;40.76;100543.31;5042082;28;20044;-73
2024/03/15 04:52:41;;;;;;;2.20;2.00;;;;;;;21.57;40.38;100544.94;5044806;28;20040;-72
2024/03/15 04:55:09;;;;;;;2.35;2.15;;;;;;;21.54;40.52;100537.34;5040903;28;20433;-72
2024/03/15 04:57:38;;;;;;;3.10;2.22;;;;;;;21.49;40.57;100537.13;5044296;28;20125;-71
2024/03/15 05:00:09;;;;;;;1.95;1.85;;;;;;;21.49;40.51;100530.00;5041804;28;20160;-73
2024/03/15 05:02:36;;;;;;;2.40;2.20;;;;;;;21.54;40.71;100532.06;5043495;28;20046;-71
2024/03/15 05:05:01;;;;;;;2.30;2.10;;;;;;;21.38;40.87;100504.91;5039202;28;20041;-72
2024/03/15 05:07:27;;;;;;;1.98;1.80;;;;;;;21.54;40.52;100524.13;5040672;28;20363;-73
2024/03/15 05:09:52;;;;;;;2.38;2.17;;;;;;;21.53;40.41;100525.13;5037472;28;21542;-72
2024/03/15 05:12:18;;;;;;;1.98;1.85;;;;;;;21.49;40.63;100523.91;5042947;28;20047;-72
2024/03/15 05:14:43;;;;;;;1.90;1.80;;;;;;;21.49;40.51;100524.72;5043655;28;20567;-72
2024/03/15 05:17:09;;;;;;;3.63;2.28;;;;;;;21.36;40.79;100499.00;5045212;28;20444;-73
2024/03/15 05:19:35;;;;;;;2.28;2.08;;;;;;;21.50;40.77;100522.88;5044391;28;20045;-72
2024/03/15 05:22:02;;;;;;;2.60;2.40;;;;;;;21.50;40.73;100520.22;5044155;28;20057;-72
2024/03/15 05:24:27;;;;;;;2.20;2.00;;;;;;;21.49;40.90;100518.59;5039865;28;20044;-72
2024/03/15 05:26:53;;;;;;;2.30;2.10;;;;;;;21.52;40.46;100524.31;5042239;28;20037;-73
2024/03/15 05:29:18;;;;;;;3.22;2.50;;;;;;;21.48;40.53;100516.97;5043493;28;20040;-73
2024/03/15 05:31:44;;;;;;;2.20;2.00;;;;;;;21.45;40.60;100523.47;5043015;28;20045;-73
2024/03/15 05:34:09;;;;;;;2.13;1.92;;;;;;;21.46;40.77;100519.81;5043003;28;20057;-72
2024/03/15 05:36:35;;;;;;;2.28;2.08;;;;;;;21.37;40.75;100499.81;5048437;28;20055;-72
2024/03/15 05:39:01;;;;;;;2.17;1.98;;;;;;;21.44;40.56;100513.91;5049156;28;20532;-73
2024/03/15 05:41:26;;;;;;;2.78;2.20;;;;;;;21.48;40.45;100516.97;5045052;28;20033;-72
2024/03/15 05:43:52;;;;;;;2.15;1.95;;;;;;;21.42;40.85;100524.69;5047633;28;20033;-72
2024/03/15 05:46:18;;;;;;;2.28;2.08;;;;;;;21.44;40.40;100527.16;5052068;28;20888;-72
2024/03/15 05:48:44;;;;;;;3.03;2.30;;;;;;;21.42;40.55;100516.75;5046176;28;20053;-72
2024/03/15 05:51:09;;;;;;;2.90;2.00;;;;;;;21.41;40.42;100516.94;5050649;28;20025;-71
2024/03/15 05:53:34;;;;;;;3.53;2.30;;;;;;;21.46;40.69;100525.13;5044394;28;20033;-71
2024/03/15 05:56:01;;;;;;;2.15;1.95;;;;;;;21.47;40.76;100534.69;5051736;28;20098;-71
2024/03/15 05:58:27;;;;;;;2.15;1.95;;;;;;;21.41;40.83;100528.38;5046365;28;20037;-72
2024/03/15 06:00:52;;;;;;;2.53;2.33;;;;;;;21.39;40.58;100525.09;5048660;28;20053;-72
2024/03/15 06:03:18;;;;;;;2.22;2.03;;;;;;;21.42;40.91;100524.69;5048224;28;20071;-73
2024/03/15 06:05:44;;;;;;;2.15;2.03;;;;;;;21.39;40.84;100522.44;5042799;28;20092;-72
2024/03/15 06:08:10;;;;;;;2.22;2.03;;;;;;;21.38;40.71;100515.50;5048624;28;20366;-72
2024/03/15 06:10:36;;;;;;;2.50;2.30;;;;;;;21.42;40.69;100518.59;5050552;28;20045;-73
2024/03/15 06:13:02;;;;;;;2.50;2.30;;;;;;;21.34;40.87;100508.13;5041208;28;20107;-71
2024/03/15 06:15:27;;;;;;;2.13;1.90;;;;;;;21.41;40.67;100523.06;5049129;28;20457;-72
2024/03/15 06:17:53;;;;;;;2.20;2.00;;;;;;;21.44;40.96;100528.97;5045268;28;20033;-72
2024/03/15 06:20:18;;;;;;;2.08;1.95;;;;;;;21.42;40.96;100532.66;5044140;28;20046;-72
2024/03/15 06:22:44;;;;;;;2.55;2.35;;;;;;;21.41;40.90;100519.59;5059611;28;20042;-72
2024/03/15 06:25:11;;;;;;;2.40;2.20;;;;;;;21.43;40.88;100522.88;5049178;28;20033;-72
2024/03/15 06:27:39;;;;;;;2.20;2.00;;;;;;;21.36;40.78;100509.59;5043922;28;20045;-71
2024/03/15 06:30:09;;;;;;;1.90;1.80;;;;;;;21.35;40.95;100515.06;5064401;28;20047;-72
2024/03/15 06:32:39;;;;;;;2.90;2.30;;;;;;;21.35;41.04;100523.84;5059814;28;20049;-71
2024/03/15 06:35:18;;;;;;;2.53;2.08;;;;;;;21.42;40.92;100530.00;5050041;28;20052;-73
2024/03/15 06:37:45;;;;;;;2.20;2.00;;;;;;;21.34;40.94;100519.56;5045619;28;20045;-73
2024/03/15 06:40:19;;;;;;;2.50;2.30;;;;;;;21.39;40.79;100530.41;5032396;28;20025;-73
2024/03/15 06:45:46;;;;;;;1.98;1.88;;;;;;;21.45;40.69;100535.91;5047645;28;20040;-73
2024/03/15 06:48:22;;;;;;;2.00;1.88;;;;;;;21.42;40.83;100537.13;5044589;28;20045;-72
2024/03/15 06:52:31;;;;;;;2.00;1.83;;;;;;;21.37;41.02;100547.50;5049105;28;20059;-72
2024/03/15 06:53:37;;;;;;;2.50;2.10;;;;;;;21.41;41.14;100541.59;5045153;28;20055;-71
2024/03/15 06:56:02;;;;;;;2.22;1.92;;;;;;;21.40;41.00;100536.50;5063347;28;20036;-71
2024/03/15 06:58:28;;;;;;;2.35;2.03;;;;;;;21.41;40.69;100540.78;5047396;28;20473;-71
2024/03/15 07:00:54;;;;;;;3.05;2.25;;;;;;;21.40;40.72;100553.22;5037204;28;20063;-73
2024/03/15 07:03:19;;;;;;;1.95;1.85;;;;;;;21.40;40.79;100550.56;5047301;28;20044;-73
2024/03/15 07:05:45;;;;;;;2.40;2.17;;;;;;;21.42;40.79;100561.78;5049026;28;20346;-73
2024/03/15 07:08:14;;;;;;;2.22;1.83;;;;;;;21.38;41.07;100555.25;5046546;28;21067;-73
2024/03/15 07:10:40;;;;;;;2.40;2.20;;;;;;;21.40;40.78;100560.34;5045448;28;20045;-73
2024/03/15 07:13:06;;;;;;;2.40;2.20;;;;;;;21.36;40.86;100554.63;5048052;28;20744;-73
2024/03/15 07:15:32;;;;;;;2.30;2.10;;;;;;;21.41;40.79;100559.34;5040541;28;20041;-73
2024/03/15 07:18:04;;;;;;;2.28;2.05;;;;;;;21.42;40.63;100574.22;5045797;28;20049;-73
2024/03/15 07:20:36;;;;;;;2.30;2.05;;;;;;;21.38;40.78;100565.03;5043476;28;20044;-73
2024/03/15 07:23:05;;;;;;;2.20;2.00;;;;;;;21.31;41.09;100553.56;5042040;28;20064;-73
2024/03/15 07:25:31;;;;;;;2.35;1.95;;;;;;;21.37;40.82;100569.50;5041467;28;20043;-73
2024/03/15 07:27:57;;;;;;;1.95;1.85;;;;;;;21.39;40.87;100577.25;5048382;28;20055;-74
2024/03/15 07:30:24;;;;;;;2.20;2.00;;;;;;;21.30;41.01;100560.69;5042515;28;20129;-72
2024/03/15 07:32:51;;;;;;;2.20;2.00;;;;;;;21.28;41.13;100546.00;5047072;28;20041;-73
2024/03/15 07:35:18;;;;;;;3.50;2.35;;;;;;;21.39;40.81;100571.97;5043809;28;20049;-72
2024/03/15 07:37:46;;;;;;;2.50;2.10;;;;;;;21.37;41.08;100569.50;5040257;28;20041;-71
2024/03/15 07:40:13;;;;;;;2.35;2.15;;;;;;;21.40;40.79;100569.13;5045108;28;20067;-73
2024/03/15 07:42:39;;;;;;;3.08;2.20;;;;;;;21.40;40.77;100576.25;5044647;28;20400;-72
2024/03/15 07:45:04;;;;;;;2.17;1.98;;;;;;;21.33;41.10;100568.25;5044357;28;20049;-73
2024/03/15 07:47:30;;;;;;;2.13;1.90;;;;;;;21.36;41.02;100569.69;5045827;28;20212;-72
2024/03/15 07:49:56;;;;;;;2.60;2.10;;;;;;;21.39;40.92;100553.41;5042651;28;20406;-73
2024/03/15 07:52:22;;;;;;;2.42;2.20;;;;;;;21.49;40.64;100560.97;5051508;28;20032;-71
2024/03/15 07:54:48;;;;;;;2.40;2.20;;;;;;;21.59;40.76;100570.22;5042691;28;20101;-72
2024/03/15 07:57:13;;;;;;;3.08;2.38;;;;;;;21.65;40.81;100569.41;5045056;28;20045;-71
2024/03/15 07:59:40;;;;;;;2.25;1.95;;;;;;;21.65;40.77;100566.75;5043754;28;20049;-69
2024/03/15 08:02:06;;;;;;;2.40;2.08;;;;;;;21.62;40.44;100561.88;5036191;28;20036;-69
2024/03/15 08:04:31;;;;;;;2.35;2.10;;;;;;;21.60;40.79;100555.13;5058534;28;20032;-69
2024/03/15 08:06:57;;;;;;;2.40;2.08;;;;;;;21.62;40.56;100563.69;5048825;28;20044;-69
2024/03/15 08:09:26;;;;;;;2.50;2.25;;;;;;;21.64;40.83;100561.66;5042456;28;20045;-70
2024/03/15 08:11:52;;;;;;;2.63;2.03;;;;;;;21.60;40.54;100561.25;5043227;28;20444;-69
2024/03/15 08:14:18;;;;;;;2.30;2.10;;;;;;;21.58;41.22;100557.16;5038015;28;20492;-70
2024/03/15 08:16:45;;;;;;;2.63;2.10;;;;;;;21.57;40.95;100550.25;5046509;28;20048;-70
2024/03/15 08:19:10;;;;;;;2.45;2.05;;;;;;;21.61;41.06;100565.53;5044356;28;20068;-70
2024/03/15 08:21:37;;;;;;;2.75;2.20;;;;;;;21.62;41.33;100563.69;5039742;28;20056;-70
2024/03/15 08:24:04;;;;;;;2.45;2.25;;;;;;;21.60;41.31;100561.25;5042460;28;20735;-70
2024/03/15 08:26:33;;;;;;;2.50;2.30;;;;;;;21.63;41.27;100562.69;5040349;28;20150;-70
2024/03/15 08:29:00;;;;;;;3.15;2.10;;;;;;;21.64;41.17;100569.63;5043911;28;20075;-69
2024/03/15 08:31:29;;;;;;;2.30;2.10;;;;;;;21.63;40.89;100568.81;5044365;28;20041;-71
2024/03/15 08:33:55;;;;;;;2.42;2.15;;;;;;;21.64;40.99;100573.09;5057901;28;20047;-70
2024/03/15 08:36:24;;;;;;;4.15;2.25;;;;;;;21.58;41.07;100552.69;5042489;28;20686;-70
2024/03/15 08:38:49;;;;;;;2.28;2.08;;;;;;;21.62;41.34;100577.78;5043385;28;20040;-70
2024/03/15 08:41:15;;;;;;;2.60;2.22;;;;;;;21.60;41.24;100568.38;5041527;28;20068;-71
2024/03/15 08:43:41;;;;;;;2.75;1.80;;;;;;;21.61;41.27;100573.47;5038265;28;20159;-70
2024/03/15 08:46:06;;;;;;;2.60;2.17;;;;;;;21.55;41.02;100561.03;5040055;28;20092;-70
2024/03/15 08:48:32;;;;;;;3.08;2.30;;;;;;;21.73;41.06;100584.34;5040570;28;20048;-69
2024/03/15 08:50:58;;;;;;;2.25;2.05;;;;;;;21.69;40.82;100575.94;5040572;28;20517;-71
2024/03/15 08:53:26;;;;;;;2.55;2.10;;;;;;;21.75;40.88;100578.84;5054422;28;20037;-72
2024/03/15 08:55:58;;;;;;;2.20;2.00;;;;;;;21.90;40.76;100584.78;5040948;28;20835;-65
2024/03/15 08:58:27;;;;;;;6.45;2.15;;;;;;;22.02;40.83;100585.84;4987387;28;21133;-62
2024/03/15 09:00:59;;;;;;;2.60;2.40;;;;;;;22.05;40.82;100576.72;5034013;28;20373;-63
2024/03/15 09:03:25;;;;;;;2.25;2.05;;;;;;;22.14;40.93;100588.78;5037411;28;20166;-67
2024/03/15 09:05:51;;;;;;;2.33;2.03;;;;;;;22.22;40.77;100584.09;5041184;28;20048;-68
2024/03/15 09:08:16;;;;;;;2.40;2.17;;;;;;;22.27;40.81;100584.31;5038774;28;20072;-69
2024/03/15 09:10:42;;;;;;;2.13;1.90;;;;;;;22.34;40.62;100594.94;5043635;28;20032;-68
2024/03/15 09:13:09;;;;;;;2.50;2.20;;;;;;;22.40;40.62;100588.81;5044112;28;20500;-68
2024/03/15 09:15:35;;;;;;;2.10;1.90;;;;;;;22.45;40.77;100601.50;5005061;28;20355;-67
2024/03/15 09:18:01;;;;;;;2.28;2.08;;;;;;;22.52;40.54;100597.81;5040532;28;20076;-71
2024/03/15 09:20:33;;;;;;;2.72;2.50;;;;;;;22.56;40.26;100591.09;5025287;28;20454;-68
2024/03/15 09:23:02;;;;;;;2.30;2.10;;;;;;;22.56;40.23;100598.22;5016548;28;20122;-69
2024/03/15 09:25:31;;;;;;;2.65;2.45;;;;;;;22.60;40.39;100608.22;5041032;28;20037;-70
2024/03/15 09:27:57;;;;;;;3.22;2.13;;;;;;;22.63;40.43;100601.72;5004795;28;20044;-70
2024/03/15 09:30:29;;;;;;;2.63;2.15;;;;;;;22.67;40.36;100608.25;5043049;28;20049;-72
2024/03/15 09:32:56;;;;;;;2.20;2.00;;;;;;;22.68;40.78;100593.94;4997688;28;20051;-70
2024/03/15 09:35:22;;;;;;;2.42;2.10;;;;;;;22.68;40.72;100604.56;5045668;28;20481;-68
2024/03/15 09:37:50;;;;;;;2.60;1.95;;;;;;;22.73;40.69;100604.75;5000141;28;20041;-68
2024/03/15 09:40:20;;;;;;;2.30;1.88;;;;;;;22.72;40.69;100597.81;5026442;28;20573;-66
2024/03/15 09:42:48;;;;;;;2.20;2.00;;;;;;;22.78;40.81;100604.97;5037976;28;20041;-66
2024/03/15 09:45:17;;;;;;;1.88;1.75;;;;;;;22.84;40.40;100606.03;5026774;28;20728;-66
2024/03/15 09:47:49;;;;;;;2.20;2.00;;;;;;;22.85;40.44;100602.34;5011731;28;20040;-67
2024/03/15 09:50:18;;;;;;;3.45;2.20;;;;;;;22.71;40.75;100600.69;5024286;28;20044;-72
2024/03/15 09:52:44;;;;;;;2.25;1.90;;;;;;;22.70;41.15;100602.53;5024966;28;20048;-70
2024/03/15 09:55:16;;;;;;;2.35;2.15;;;;;;;22.69;40.78;100608.03;5039227;28;20044;-72
2024/03/15 09:57:43;;;;;;;2.80;2.20;;;;;;;22.67;40.68;100605.59;5021000;28;20045;-72
2024/03/15 10:00:15;;;;;;;3.70;2.47;;;;;;;22.71;40.70;100604.16;5041768;28;20477;-71
2024/03/15 10:02:44;;;;;;;2.50;2.30;;;;;;;22.71;40.49;100608.66;5016979;28;20040;-71
2024/03/15 10:05:11;;;;;;;2.97;2.20;;;;;;;22.69;40.91;100614.16;5031062;28;20041;-72
2024/03/15 10:07:37;;;;;;;2.17;1.98;;;;;;;22.73;40.75;100612.72;5044888;28;20408;-72
2024/03/15 10:10:13;;;;;;;2.50;2.00;;;;;;;22.74;40.33;100613.53;5034578;28;20120;-72
2024/03/15 10:12:41;;;;;;;2.20;2.00;;;;;;;22.72;40.55;100603.13;5021063;28;20049;-71
2024/03/15 10:15:12;;;;;;;2.28;2.05;;;;;;;22.77;40.40;100621.09;5045160;28;20124;-72
2024/03/15 10:17:43;;;;;;;2.35;2.03;;;;;;;22.77;40.29;100618.44;5012379;28;20056;-72
2024/03/15 10:20:22;;;;;;;2.08;1.88;;;;;;;22.77;40.50;100618.44;5038612;28;20463;-72
2024/03/15 10:22:56;;;;;;;2.42;2.22;;;;;;;22.79;40.44;100619.06;5032147;28;20045;-70
2024/03/15 10:25:24;;;;;;;2.95;1.90;;;;;;;22.73;40.43;100604.75;5024060;28;20162;-72
2024/03/15 10:27:53;;;;;;;2.33;1.90;;;;;;;22.77;40.26;100624.56;5039111;28;20044;-71
2024/03/15 10:30:23;;;;;;;2.05;1.90;;;;;;;22.78;40.25;100626.19;5033437;28;20334;-73
2024/03/15 10:32:49;;;;;;;;;;;;;;;22.80;40.18;100626.84;5049439;28;20138;-70
2024/03/15 10:35:16;;;;;;;3.17;1.92;;;;;;;22.79;40.04;100624.34;5009732;28;20061;-71
2024/03/15 10:37:42;;;;;;;2.45;2.03;;;;;;;22.78;40.23;100628.84;5048944;28;20036;-72
2024/03/15 10:40:13;;;;;;;2.17;2.03;;;;;;;22.79;40.03;100625.19;5007712;28;20148;-71
2024/03/15 10:42:42;;;;;;;2.22;2.03;;;;;;;;;;5038474;28;20104;-71
2024/03/15 10:45:28;;;;;;;2.10;1.90;;;;;;;22.83;40.08;100634.41;5011388;28;20036;-71
2024/03/15 10:47:55;;;;;;;1.83;1.73;;;;;;;22.81;39.95;100625.81;5026954;28;20487;-71
2024/03/15 10:50:33;;;;;;;2.30;2.10;;;;;;;22.77;39.83;100611.28;5035941;28;20449;-73
2024/03/15 10:52:58;;;;;;;2.22;2.08;;;;;;;22.83;40.19;100628.28;5008848;28;20048;-73
2024/03/15 10:55:29;;;;;;;2.28;1.85;;;;;;;22.84;39.86;100627.28;5052433;28;20036;-72
2024/03/15 10:57:58;;;;;;;2.72;2.10;;;;;;;22.87;40.21;100629.50;5012724;28;20044;-72
2024/03/15 11:00:26;;;;;;;1.70;1.60;;;;;;;22.87;39.91;100630.34;5049179;28;20033;-72
2024/03/15 11:02:56;;;;;;;2.58;2.08;;;;;;;22.88;40.09;100639.13;5011101;28;20077;-73
2024/03/15 11:05:27;;;;;;;2.25;2.00;;;;;;;22.92;39.87;100625.22;5044371;28;20029;-72
2024/03/15 11:08:14;;;;;;;2.63;1.95;;;;;;;22.91;39.97;100625.41;5004640;28;20048;-72
2024/03/15 11:10:40;;;;;;;2.65;2.22;;;;;;;22.90;40.06;100626.44;5042106;28;20118;-72
2024/03/15 11:13:11;;;;;;;2.67;1.83;;;;;;;22.92;39.91;100630.53;5028354;28;20139;-72
2024/03/15 11:15:38;;;;;;;1.73;1.48;;;;;;;22.95;39.89;100626.63;5043475;28;20041;-66
2024/03/15 11:18:11;;;;;;;1.80;1.70;;;;;;;23.03;40.03;100631.75;5001293;28;20087;-66
2024/03/15 11:21:03;;;;;;;3.17;1.60;;;;;;;23.09;39.80;100630.94;5043037;28;20149;-68
2024/03/15 11:23:29;;;;;;;2.60;1.60;;;;;;;23.12;39.59;100627.84;4991972;28;20057;-74
2024/03/15 11:26:07;;;;;;;2.28;1.80;;;;;;;23.12;39.59;100625.19;5039418;28;20175;-66
2024/03/15 11:28:35;;;;;;;2.42;1.83;;;;;;;23.16;39.61;100626.44;4996267;28;20083;-66
2024/03/15 11:31:01;;;;;;;2.90;1.70;;;;;;;23.18;39.98;100624.41;5041963;28;20037;-69